Share

Samui, Thailand

Samui (VTSM) Elev 66 ft | 9.55 °N, 100.06 °E | Change Station

Current weather conditions updated 26 minutes ago

Mostly Cloudy
Mostly Cloudy
91 °F
Feels Like 105 °F
N
8
Wind Variable Wind from SE
Sunrise 6:08 AM
Sunset 6:29 PM
Moon Waning Gibbous

Today is forecast to be nearly the same temperature as yesterday.

Pressure 29.89 in
Visibility 6.2 miles
Clouds Few 2000 ft
Mostly Cloudy 30000 ft
Heat Index 105 °F
Dew Point 77 °F
Humidity 63%
Rainfall 0.00 in
Snow Depth Not available.
UV 6 out of 16
Pollen Not available.
Air Quality Not available.
Flu Activity Not available.
METAR VTSM 180300Z 13007KT 9999 FEW020 BKN300 33/25 Q1012 A2989

More Conditions Fewer Conditions

Pressure 29.89 in
Visibility 6.2 miles
Clouds Few 2000 ft
Mostly Cloudy 30000 ft
Heat Index 105 °F
Dew Point 77 °F
Humidity 63%
Rainfall 0.00 in
Snow Depth Not available.
UV 6 out of 16
Pollen Not available.
Air Quality Not available.
Flu Activity Not available.
METAR VTSM 180300Z 13007KT 9999 FEW020 BKN300 33/25 Q1012 A2989

More Conditions Fewer Conditions

10-Day Forecast

Almanac

Astronomy

Apr. 18, 2014 Rise Set
Actual Time 6:08 AM ICT 6:29 PM ICT
Civil Twilight 5:47 AM ICT 6:51 PM ICT
Nautical Twilight 5:22 AM ICT 7:16 PM ICT
Astronomical Twilight 4:57 AM ICT 7:41 PM ICT
Moon 9:20 PM ICT 8:24 AM ICT
Length of Visible Light 13h 04m
Length of Day
12h 21m
Tomorrow will be 0m 30s longer.
Waning Gibbous, 91% of the Moon is Illuminated
Apr 17
Waning Gibbous
Apr 22
Last Quarter
Apr 29
New
May 6
First Quarter
May 14
Full

Yesterday's Extremes

Country Highs Country Lows

Community

  • SUNRISE THROUGH THE TREES.
    SUNRISE THROUGH THE TREES.
  • Dog Wood Blossoms
    Dog Wood Blossoms
  • Morning Light
    Morning Light
  • New Day
    New Day
  • Lake Michigan Sunrise
    Lake Michigan Sunrise

WunderPhotos

Upload Photos

1,702,235 photos uploaded!

WunderBlogs® & News

Nearby

Snow Depth

Not available.

Coastal Water Temperatures

Place Temperature
No Stations Reporting

Earthquake Activity

City Distance Mag. Time & Date
No recent earthquake activity has been reported nearby.
Minimum magnitude displayed is 2.5.

Nearby Weather Stations

There are no personal weather stations in this area.

What do you think?

We're not finished. Please let us know what you like, what you don't like, and what you are still missing.